Time;durP1;ratioP1;P1;durP2;ratioP2;P2;SDS_P1;SDS_P2;PMS_P1;PMS_P2;Temp;Humidity;BMP_temperature;BMP_pressure;BME280_temperature;BME280_humidity;BME280_pressure;Samples;Min_cycle;Max_cycle;Signal;HPM_P1;HPM_P2
2022/10/28 00:05:34;;;;;;;13.03;7.77;;;;;17.00;99636.00;;;;16651528;28;20219;-48
2022/10/28 00:13:38;;;;;;;7.23;6.30;;;;;16.90;99624.00;;;;16644692;28;20312;-48
2022/10/28 00:21:42;;;;;;;6.27;5.77;;;;;16.70;99631.00;;;;16622646;28;20199;-47
2022/10/28 00:29:46;;;;;;;7.77;6.97;;;;;16.60;99637.00;;;;16635208;28;20219;-48
2022/10/28 00:37:48;;;;;;;11.63;7.00;;;;;16.40;99627.00;;;;16650125;28;20227;-48
2022/10/28 00:45:52;;;;;;;9.20;6.43;;;;;16.50;99629.00;;;;16631233;28;20227;-47
2022/10/28 00:53:55;;;;;;;9.43;6.97;;;;;16.50;99630.00;;;;16649546;28;20234;-47
2022/10/28 01:01:59;;;;;;;10.80;6.10;;;;;16.50;99627.00;;;;16641647;28;20206;-47
2022/10/28 01:10:02;;;;;;;9.60;6.80;;;;;16.40;99625.00;;;;16646633;28;20579;-48
2022/10/28 01:18:16;;;;;;;10.20;6.73;;;;;16.30;99632.00;;;;16628916;28;20306;-48
2022/10/28 01:26:38;;;;;;;7.73;6.50;;;;;16.20;99614.00;;;;16619383;28;20220;-48
2022/10/28 01:34:49;;;;;;;9.47;6.80;;;;;16.20;99609.00;;;;16623586;28;20708;-48
2022/10/28 01:42:55;;;;;;;10.80;6.13;;;;;16.00;99608.00;;;;16639939;28;20238;-48
2022/10/28 01:51:03;;;;;;;15.93;7.97;;;;;16.20;99613.00;;;;16624393;28;20204;-47
2022/10/28 01:59:08;;;;;;;16.10;7.43;;;;;16.30;99616.00;;;;16639748;28;20223;-48
2022/10/28 02:07:12;;;;;;;13.43;6.73;;;;;16.30;99602.00;;;;16652035;28;20732;-48
2022/10/28 02:15:26;;;;;;;11.50;6.67;;;;;16.10;99607.00;;;;16658117;28;20750;-48
2022/10/28 02:23:38;;;;;;;11.67;6.30;;;;;15.90;99596.00;;;;16624676;28;20227;-48
2022/10/28 02:31:43;;;;;;;7.43;6.50;;;;;15.70;99588.00;;;;16623586;28;20210;-47
2022/10/28 02:39:51;;;;;;;11.23;6.60;;;;;15.70;99591.00;;;;16633125;28;20222;-48
2022/10/28 02:47:57;;;;;;;10.17;7.07;;;;;15.60;99583.00;;;;16628706;28;20593;-48
2022/10/28 02:56:02;;;;;;;8.90;6.10;;;;;15.60;99576.00;;;;16640426;28;20218;-48
2022/10/28 03:04:05;;;;;;;8.87;6.30;;;;;15.00;99590.00;;;;16624606;28;20219;-49
2022/10/28 03:12:08;;;;;;;7.27;6.07;;;;;15.40;99589.00;;;;16646434;28;20207;-48
2022/10/28 03:20:11;;;;;;;9.07;6.60;;;;;15.40;99595.00;;;;16636493;28;20325;-49
2022/10/28 03:28:15;;;;;;;11.50;7.00;;;;;15.40;99582.00;;;;16645469;28;20273;-49
2022/10/28 03:36:17;;;;;;;10.50;6.70;;;;;15.50;99592.00;;;;16625721;28;20234;-48
2022/10/28 03:44:21;;;;;;;14.37;8.23;;;;;15.60;99586.00;;;;16630237;28;20745;-49
2022/10/28 03:52:24;;;;;;;9.40;7.07;;;;;15.60;99584.00;;;;16644910;28;20236;-49
2022/10/28 04:00:27;;;;;;;10.93;6.67;;;;;15.60;99589.00;;;;16629910;28;20248;-49
2022/10/28 04:08:30;;;;;;;16.03;7.20;;;;;15.40;99574.00;;;;16616909;28;20234;-47
2022/10/28 04:16:34;;;;;;;8.20;6.30;;;;;15.30;99562.00;;;;16630098;28;20223;-49
2022/10/28 04:24:36;;;;;;;14.93;6.70;;;;;15.40;99566.00;;;;16620966;28;20722;-48
2022/10/28 04:32:40;;;;;;;14.73;7.23;;;;;15.30;99557.00;;;;16628695;28;20227;-48
2022/10/28 04:40:42;;;;;;;11.50;6.90;;;;;15.20;99556.00;;;;16634007;28;20215;-49
2022/10/28 04:48:47;;;;;;;11.90;7.50;;;;;15.20;99565.00;;;;16624263;28;20846;-48
2022/10/28 04:56:49;;;;;;;12.63;7.50;;;;;15.30;99560.00;;;;16615696;28;20345;-49
2022/10/28 05:04:53;;;;;;;11.83;7.27;;;;;15.20;99574.00;;;;16615407;28;20368;-49
2022/10/28 05:12:55;;;;;;;10.90;7.10;;;;;15.40;99560.00;;;;16604761;28;20223;-49
2022/10/28 05:20:59;;;;;;;8.33;6.60;;;;;15.40;99548.00;;;;16621015;28;20228;-49
2022/10/28 05:29:02;;;;;;;9.10;7.67;;;;;15.20;99536.00;;;;16626471;28;20249;-49
2022/10/28 05:37:05;;;;;;;11.73;7.50;;;;;15.10;99520.00;;;;16616575;28;20227;-49
2022/10/28 05:45:09;;;;;;;23.70;15.33;;;;;15.00;99533.00;;;;16628098;28;20230;-49
2022/10/28 05:53:12;;;;;;;14.20;7.60;;;;;15.10;99529.00;;;;16626565;28;20580;-49
2022/10/28 06:01:15;;;;;;;11.07;6.50;;;;;15.30;99538.00;;;;16622370;28;20372;-49
2022/10/28 06:09:19;;;;;;;13.17;7.67;;;;;15.20;99539.00;;;;16625457;28;20596;-49
2022/10/28 06:17:21;;;;;;;14.80;8.30;;;;;15.10;99544.00;;;;16627245;28;20278;-48
2022/10/28 06:25:26;;;;;;;9.80;7.27;;;;;15.10;99556.00;;;;16615199;28;20698;-49
2022/10/28 06:33:29;;;;;;;10.80;7.60;;;;;15.10;99566.00;;;;16609919;28;20220;-48
2022/10/28 06:41:32;;;;;;;8.87;7.30;;;;;15.40;99554.00;;;;16616075;28;20234;-49
2022/10/28 06:49:35;;;;;;;10.30;8.50;;;;;15.40;99548.00;;;;16621848;28;20218;-49
2022/10/28 06:57:39;;;;;;;12.07;9.13;;;;;15.30;99548.00;;;;16635443;28;20231;-49
2022/10/28 07:05:41;;;;;;;11.70;8.23;;;;;15.40;99543.00;;;;16635700;28;20310;-49
2022/10/28 07:13:45;;;;;;;12.27;8.07;;;;;15.60;99537.00;;;;16634135;28;20694;-49
2022/10/28 07:21:48;;;;;;;10.60;6.47;;;;;15.90;99534.00;;;;16633398;28;20320;-49
2022/10/28 07:29:51;;;;;;;12.70;7.13;;;;;16.00;99548.00;;;;16631748;28;20683;-48
2022/10/28 07:37:54;;;;;;;11.60;7.30;;;;;16.00;99562.00;;;;16621517;28;20653;-49
2022/10/28 07:45:59;;;;;;;17.47;8.20;;;;;16.20;99568.00;;;;16613341;28;20226;-49
2022/10/28 07:54:01;;;;;;;13.80;7.90;;;;;16.40;99580.00;;;;16622082;28;20222;-49
2022/10/28 08:02:05;;;;;;;20.07;9.30;;;;;16.70;99571.00;;;;16613696;28;20292;-47
2022/10/28 08:10:08;;;;;;;11.33;8.10;;;;;16.70;99570.00;;;;16630089;28;20849;-49
2022/10/28 08:18:12;;;;;;;11.10;7.40;;;;;17.00;99569.00;;;;16636742;28;20237;-48
2022/10/28 08:26:15;;;;;;;10.13;7.97;;;;;16.80;99575.00;;;;16618811;28;20229;-48
2022/10/28 08:34:19;;;;;;;14.13;8.40;;;;;17.00;99580.00;;;;16628894;28;20223;-49
2022/10/28 08:42:29;;;;;;;14.17;7.80;;;;;17.40;99585.00;;;;16608979;28;20238;-48
2022/10/28 08:50:38;;;;;;;12.20;7.03;;;;;17.50;99582.00;;;;16616946;28;20298;-49
2022/10/28 08:58:43;;;;;;;11.70;7.20;;;;;18.10;99562.00;;;;16624100;28;20285;-50
2022/10/28 09:06:47;;;;;;;20.13;6.73;;;;;18.60;99562.00;;;;16616943;28;20221;-49
2022/10/28 09:14:59;;;;;;;24.50;11.50;;;;;18.60;99567.00;;;;16652694;22;20227;-47
2022/10/28 09:23:08;;;;;;;20.07;11.20;;;;;19.00;99583.00;;;;16631160;28;20717;-48
2022/10/28 09:31:17;;;;;;;8.43;7.03;;;;;19.40;99601.00;;;;16608318;28;20205;-47
2022/10/28 09:39:24;;;;;;;24.93;12.70;;;;;19.00;99575.00;;;;16609753;28;20314;-47
2022/10/28 09:47:29;;;;;;;17.53;9.40;;;;;18.40;99487.00;;;;16617347;28;20229;-47
2022/10/28 09:55:33;;;;;;;13.20;5.70;;;;;20.00;99554.00;;;;16626622;28;20335;-47
2022/10/28 10:03:38;;;;;;;10.40;6.40;;;;;20.10;99537.00;;;;16605345;28;20282;-47
2022/10/28 10:11:45;;;;;;;16.00;6.57;;;;;21.30;99523.00;;;;16629076;28;20230;-48
2022/10/28 10:20:08;;;;;;;12.07;6.73;;;;;20.60;99533.00;;;;16632517;28;20597;-47
2022/10/28 10:28:16;;;;;;;11.40;8.27;;;;;20.50;99563.00;;;;16635483;28;20230;-47
2022/10/28 10:36:22;;;;;;;12.63;7.40;;;;;20.40;99554.00;;;;16635557;28;20215;-48
2022/10/28 10:44:32;;;;;;;8.80;6.07;;;;;20.40;99538.00;;;;16638880;28;20736;-47
2022/10/28 10:52:34;;;;;;;9.80;7.00;;;;;20.90;99528.00;;;;16647551;28;20229;-45
2022/10/28 11:00:44;;;;;;;10.90;7.87;;;;;20.40;99511.00;;;;16640483;28;20234;-47
2022/10/28 11:08:46;;;;;;;11.80;7.30;;;;;20.90;99522.00;;;;16637980;28;20221;-47
2022/10/28 11:16:51;;;;;;;12.27;7.97;;;;;21.50;99535.00;;;;16624327;28;20229;-47
2022/10/28 11:25:32;;;;;;;21.40;9.20;;;;;22.00;99522.00;;;;16638776;28;20248;-47
2022/10/28 11:33:42;;;;;;;8.60;5.20;;;;;21.60;99532.00;;;;16636749;28;20217;-47
2022/10/28 11:41:53;;;;;;;8.83;6.20;;;;;21.30;99516.00;;;;16633604;28;20300;-47
2022/10/28 11:50:19;;;;;;;15.30;6.63;;;;;21.30;99495.00;;;;16640803;28;20202;-48
2022/10/28 11:58:30;;;;;;;7.97;5.80;;;;;21.00;99503.00;;;;16640382;28;20591;-47
2022/10/28 12:06:48;;;;;;;15.97;6.97;;;;;20.80;99416.00;;;;16631140;28;20243;-47
2022/10/28 12:14:58;;;;;;;12.40;5.80;;;;;21.50;99435.00;;;;16637344;28;20233;-47
2022/10/28 12:23:04;;;;;;;8.87;5.47;;;;;22.10;99439.00;;;;16628159;28;20219;-47
2022/10/28 12:31:16;;;;;;;6.57;5.00;;;;;23.70;99472.00;;;;16638941;28;20232;-48
2022/10/28 12:39:22;;;;;;;7.13;5.07;;;;;24.60;99459.00;;;;16627674;28;20229;-47
2022/10/28 12:47:27;;;;;;;12.13;5.50;;;;;24.60;99450.00;;;;16628174;28;20214;-47
2022/10/28 12:55:33;;;;;;;6.80;4.10;;;;;25.60;99429.00;;;;16643127;28;20215;-47
2022/10/28 13:03:36;;;;;;;8.83;4.20;;;;;26.40;99429.00;;;;16616039;28;20226;-47
2022/10/28 13:11:59;;;;;;;8.20;4.63;;;;;26.30;99413.00;;;;16621031;28;20218;-47
2022/10/28 13:20:11;;;;;;;13.13;5.23;;;;;26.50;99416.00;;;;16622357;28;20230;-47
2022/10/28 13:28:17;;;;;;;13.40;5.63;;;;;26.70;99421.00;;;;16613215;28;20227;-46
2022/10/28 13:36:24;;;;;;;9.33;5.30;;;;;26.30;99428.00;;;;16622053;28;20219;-47
2022/10/28 13:44:29;;;;;;;8.70;5.00;;;;;27.10;99426.00;;;;16629540;28;20234;-48
2022/10/28 13:52:32;;;;;;;9.20;4.80;;;;;26.30;99422.00;;;;16606129;28;20222;-47
2022/10/28 14:00:37;;;;;;;9.33;4.60;;;;;26.00;99416.00;;;;16617894;28;20226;-47
2022/10/28 14:08:41;;;;;;;8.90;4.57;;;;;26.20;99420.00;;;;16608724;28;20223;-47
2022/10/28 14:16:45;;;;;;;12.53;5.87;;;;;25.80;99430.00;;;;16625318;28;20274;-47
2022/10/28 14:24:47;;;;;;;16.90;6.30;;;;;25.10;99436.00;;;;16624478;28;20230;-47
2022/10/28 14:33:29;;;;;;;10.90;5.63;;;;;25.20;99443.00;;;;16608828;28;20238;-47
2022/10/28 14:42:05;;;;;;;11.93;5.70;;;;;24.70;99450.00;;;;16627412;28;20632;-47
2022/10/28 14:50:19;;;;;;;9.83;8.50;;;;;23.90;99463.00;;;;16617033;28;20222;-47
2022/10/28 14:58:22;;;;;;;19.70;8.50;;;;;23.50;99457.00;;;;16630961;28;20596;-47
2022/10/28 15:06:32;;;;;;;21.93;13.97;;;;;23.50;99467.00;;;;16623729;28;20223;-47
2022/10/28 15:14:37;;;;;;;12.87;7.70;;;;;22.70;99465.00;;;;16620311;28;20309;-47
2022/10/28 15:22:43;;;;;;;12.53;7.80;;;;;23.40;99461.00;;;;16615182;28;20236;-47
2022/10/28 15:30:45;;;;;;;11.87;7.33;;;;;23.00;99452.00;;;;16625146;28;20203;-47
2022/10/28 15:38:50;;;;;;;10.47;6.53;;;;;22.60;99442.00;;;;16630180;28;20242;-46
2022/10/28 15:46:54;;;;;;;10.97;6.03;;;;;22.30;99445.00;;;;16627791;28;20223;-47
2022/10/28 15:54:58;;;;;;;11.70;6.73;;;;;22.40;99439.00;;;;16613256;28;20224;-47
2022/10/28 16:03:04;;;;;;;15.53;7.67;;;;;22.00;99434.00;;;;16626295;28;20242;-47
2022/10/28 16:11:15;;;;;;;12.17;6.73;;;;;21.10;99453.00;;;;16615633;28;20259;-47
2022/10/28 16:19:25;;;;;;;8.50;5.30;;;;;21.10;99468.00;;;;16615046;28;20230;-46
2022/10/28 16:27:31;;;;;;;14.10;5.83;;;;;20.80;99468.00;;;;16614229;28;20225;-46
2022/10/28 16:35:33;;;;;;;11.43;6.43;;;;;20.50;99469.00;;;;16615240;28;20227;-47
2022/10/28 16:43:38;;;;;;;12.53;6.40;;;;;20.70;99471.00;;;;16616897;28;20317;-47
2022/10/28 16:51:40;;;;;;;14.80;6.70;;;;;20.30;99474.00;;;;16630347;28;20293;-48
2022/10/28 16:59:44;;;;;;;11.17;6.27;;;;;20.10;99479.00;;;;16633782;28;20227;-47
2022/10/28 17:07:46;;;;;;;16.10;7.00;;;;;19.70;99490.00;;;;16641569;28;20716;-47
2022/10/28 17:15:53;;;;;;;12.10;6.77;;;;;19.60;99498.00;;;;16635058;28;20248;-47
2022/10/28 17:23:55;;;;;;;21.53;9.80;;;;;19.40;99510.00;;;;16633945;28;20727;-47
2022/10/28 17:31:59;;;;;;;18.17;6.90;;;;;19.60;99500.00;;;;16635145;28;20276;-46
2022/10/28 17:40:01;;;;;;;10.53;6.00;;;;;19.10;99509.00;;;;16636877;28;20697;-46
2022/10/28 17:48:05;;;;;;;17.00;7.67;;;;;18.90;99516.00;;;;16629977;28;20682;-46
2022/10/28 17:56:08;;;;;;;38.43;9.20;;;;;19.50;99507.00;;;;16630610;28;20698;-46
2022/10/28 18:04:12;;;;;;;10.20;8.80;;;;;18.70;99520.00;;;;16617153;28;20237;-46
2022/10/28 18:12:14;;;;;;;14.77;8.57;;;;;18.70;99529.00;;;;16624942;28;20236;-47
2022/10/28 18:20:18;;;;;;;11.47;6.40;;;;;19.80;99516.00;;;;16619659;28;20229;-47
2022/10/28 18:28:22;;;;;;;14.57;8.93;;;;;18.70;99523.00;;;;16622467;28;20217;-46
2022/10/28 18:36:26;;;;;;;11.83;7.93;;;;;18.20;99533.00;;;;16626681;28;20228;-47
2022/10/28 18:44:30;;;;;;;12.00;7.60;;;;;18.90;99528.00;;;;16626267;28;20229;-48
2022/10/28 18:52:34;;;;;;;13.50;8.17;;;;;18.10;99536.00;;;;16642270;28;20210;-46
2022/10/28 19:00:38;;;;;;;12.23;8.40;;;;;18.40;99538.00;;;;16640141;28;20231;-46
2022/10/28 19:08:43;;;;;;;13.33;8.30;;;;;17.80;99547.00;;;;16629904;28;20219;-47
2022/10/28 19:16:45;;;;;;;12.27;9.20;;;;;17.80;99552.00;;;;16627446;28;20226;-47
2022/10/28 19:24:49;;;;;;;12.13;7.73;;;;;17.70;99548.00;;;;16627441;28;20238;-47
2022/10/28 19:32:51;;;;;;;16.23;9.17;;;;;17.90;99529.00;;;;16608310;28;20215;-47
2022/10/28 19:40:55;;;;;;;15.73;9.83;;;;;17.50;99532.00;;;;16613381;28;20215;-46
2022/10/28 19:48:58;;;;;;;14.60;8.20;;;;;17.70;99530.00;;;;16614509;28;20604;-47
2022/10/28 19:57:02;;;;;;;18.00;9.63;;;;;17.40;99524.00;;;;16639755;28;20230;-47
2022/10/28 20:05:05;;;;;;;13.63;7.70;;;;;17.90;99539.00;;;;16638433;28;20225;-47
2022/10/28 20:13:09;;;;;;;16.63;11.13;;;;;17.60;99535.00;;;;16605235;28;20242;-46
2022/10/28 20:21:13;;;;;;;12.03;7.70;;;;;17.80;99549.00;;;;16636894;28;20227;-46
2022/10/28 20:29:17;;;;;;;13.50;8.17;;;;;17.40;99551.00;;;;16639709;28;20256;-47
2022/10/28 20:37:19;;;;;;;12.80;7.80;;;;;17.10;99565.00;;;;16630002;28;20222;-47
2022/10/28 20:45:23;;;;;;;13.53;7.60;;;;;16.90;99579.00;;;;16633263;28;20222;-47
2022/10/28 20:53:27;;;;;;;16.30;7.40;;;;;16.80;99585.00;;;;16633181;28;20223;-47
2022/10/28 21:01:32;;;;;;;13.70;8.00;;;;;17.10;99582.00;;;;16621096;28;20242;-47
2022/10/28 21:09:34;;;;;;;12.97;8.57;;;;;18.20;99563.00;;;;16623350;28;20186;-47
2022/10/28 21:17:38;;;;;;;19.80;7.23;;;;;17.20;99574.00;;;;16611517;28;20337;-47
2022/10/28 21:25:41;;;;;;;13.57;7.67;;;;;16.70;99563.00;;;;16610692;28;20714;-47
2022/10/28 21:33:45;;;;;;;11.90;7.00;;;;;16.60;99579.00;;;;16604517;28;20850;-46
2022/10/28 21:41:48;;;;;;;15.30;6.53;;;;;16.50;99590.00;;;;16611710;28;20624;-47
2022/10/28 21:49:52;;;;;;;14.37;6.63;;;;;16.40;99598.00;;;;16608333;28;20796;-46
2022/10/28 21:57:54;;;;;;;8.63;7.00;;;;;16.30;99617.00;;;;16616597;28;20222;-46
2022/10/28 22:05:58;;;;;;;14.80;7.10;;;;;16.90;99607.00;;;;16613986;28;20218;-47
2022/10/28 22:14:01;;;;;;;12.67;8.17;;;;;16.50;99599.00;;;;16602174;28;20305;-47
2022/10/28 22:22:05;;;;;;;13.43;8.17;;;;;17.10;99596.00;;;;16611544;28;20225;-47
2022/10/28 22:30:09;;;;;;;10.20;6.60;;;;;16.40;99599.00;;;;16643459;28;20696;-46
2022/10/28 22:38:12;;;;;;;8.67;6.00;;;;;16.90;99604.00;;;;16640792;28;20958;-47
2022/10/28 22:46:15;;;;;;;13.53;7.30;;;;;16.20;99622.00;;;;16644830;28;20698;-47
2022/10/28 22:54:19;;;;;;;11.70;6.93;;;;;16.00;99629.00;;;;16635327;28;20320;-47
2022/10/28 23:02:22;;;;;;;11.23;8.67;;;;;16.40;99624.00;;;;16637277;28;20215;-46
2022/10/28 23:10:25;;;;;;;18.73;8.30;;;;;16.20;99622.00;;;;16636773;28;20666;-46
2022/10/28 23:18:28;;;;;;;11.87;8.00;;;;;16.00;99624.00;;;;16638618;28;20228;-46
2022/10/28 23:26:31;;;;;;;17.63;8.40;;;;;16.00;99629.00;;;;16629713;28;20574;-46
2022/10/28 23:34:34;;;;;;;11.27;7.10;;;;;15.80;99622.00;;;;16626027;28;20580;-46
2022/10/28 23:42:38;;;;;;;17.10;7.37;;;;;16.10;99624.00;;;;16624116;28;20233;-46
2022/10/28 23:50:40;;;;;;;12.07;8.07;;;;;15.60;99622.00;;;;16634900;28;20275;-47
2022/10/28 23:58:44;;;;;;;11.23;7.20;;;;;15.50;99624.00;;;;16635591;28;20223;-47
